Terminal Aerodrome Forecast
Issued by NWS Lake Charles, LA

Home | Current Version | Previous Version | Text Only | Print | Product List | Glossary On
Versions: 1 2 3 4 5 6 7 8 9 10 11 12 13 14 15 16 17 18
000
FTUS44 KLCH 181833 AAA
TAFLFT
TAF AMD
KLFT 181833Z 1819/1918 VRB05KT P6SM BKN026 OVC035
     FM182100 17007KT P6SM -SHRA SCT014 OVC025
     FM190100 21005KT P6SM SCT035 SCT070 BKN140
     FM190900 24004KT 4SM BR SCT007 BKN020=

USA.gov is the U.S. government's official web portal to all federal, state and local government web resources and services.